sensor_id;sensor_type;location;lat;lon;timestamp;P1;durP1;ratioP1;P2;durP2;ratioP2
9799;SDS011;4939;52.00085300;4.17406100;2023-04-01T00:00:30;89.13;;;8.50;;
9799;SDS011;4939;52.00085300;4.17406100;2023-04-01T00:02:56;90.90;;;7.72;;
9799;SDS011;4939;52.00085300;4.17406100;2023-04-01T00:05:22;80.35;;;8.10;;
9799;SDS011;4939;52.00085300;4.17406100;2023-04-01T00:07:49;80.47;;;8.45;;
9799;SDS011;4939;52.00085300;4.17406100;2023-04-01T00:10:15;78.68;;;8.20;;
9799;SDS011;4939;52.00085300;4.17406100;2023-04-01T00:12:42;100.63;;;8.82;;
9799;SDS011;4939;52.00085300;4.17406100;2023-04-01T00:15:09;90.40;;;9.88;;
9799;SDS011;4939;52.00085300;4.17406100;2023-04-01T00:17:36;110.32;;;10.23;;
9799;SDS011;4939;52.00085300;4.17406100;2023-04-01T00:20:04;66.30;;;7.03;;
9799;SDS011;4939;52.00085300;4.17406100;2023-04-01T00:22:32;86.13;;;9.23;;
9799;SDS011;4939;52.00085300;4.17406100;2023-04-01T00:24:58;71.45;;;7.47;;
9799;SDS011;4939;52.00085300;4.17406100;2023-04-01T00:27:24;82.05;;;9.27;;
9799;SDS011;4939;52.00085300;4.17406100;2023-04-01T00:29:50;69.38;;;8.23;;
9799;SDS011;4939;52.00085300;4.17406100;2023-04-01T00:32:15;76.80;;;8.05;;
9799;SDS011;4939;52.00085300;4.17406100;2023-04-01T00:34:41;71.88;;;7.57;;
9799;SDS011;4939;52.00085300;4.17406100;2023-04-01T00:37:07;55.22;;;6.13;;
9799;SDS011;4939;52.00085300;4.17406100;2023-04-01T00:39:35;70.18;;;6.68;;
9799;SDS011;4939;52.00085300;4.17406100;2023-04-01T00:42:02;72.85;;;6.32;;
9799;SDS011;4939;52.00085300;4.17406100;2023-04-01T00:44:32;61.33;;;7.47;;
9799;SDS011;4939;52.00085300;4.17406100;2023-04-01T00:46:59;74.55;;;6.53;;
9799;SDS011;4939;52.00085300;4.17406100;2023-04-01T00:49:27;62.20;;;6.28;;
9799;SDS011;4939;52.00085300;4.17406100;2023-04-01T00:51:58;94.35;;;9.05;;
9799;SDS011;4939;52.00085300;4.17406100;2023-04-01T00:54:27;57.40;;;6.53;;
9799;SDS011;4939;52.00085300;4.17406100;2023-04-01T00:56:56;75.80;;;6.22;;
9799;SDS011;4939;52.00085300;4.17406100;2023-04-01T00:59:26;62.65;;;7.10;;
9799;SDS011;4939;52.00085300;4.17406100;2023-04-01T01:01:55;71.43;;;7.18;;
9799;SDS011;4939;52.00085300;4.17406100;2023-04-01T01:04:25;78.45;;;7.70;;
9799;SDS011;4939;52.00085300;4.17406100;2023-04-01T01:09:44;75.13;;;8.00;;
9799;SDS011;4939;52.00085300;4.17406100;2023-04-01T01:12:34;63.72;;;7.13;;
9799;SDS011;4939;52.00085300;4.17406100;2023-04-01T01:20:48;39.13;;;5.97;;
9799;SDS011;4939;52.00085300;4.17406100;2023-04-01T01:26:37;30.33;;;4.40;;
9799;SDS011;4939;52.00085300;4.17406100;2023-04-01T01:37:45;28.77;;;4.00;;
9799;SDS011;4939;52.00085300;4.17406100;2023-04-01T01:40:12;20.83;;;3.67;;
9799;SDS011;4939;52.00085300;4.17406100;2023-04-01T01:42:41;33.70;;;5.50;;
9799;SDS011;4939;52.00085300;4.17406100;2023-04-01T01:45:11;27.35;;;5.30;;
9799;SDS011;4939;52.00085300;4.17406100;2023-04-01T01:47:42;39.65;;;5.07;;
9799;SDS011;4939;52.00085300;4.17406100;2023-04-01T01:50:10;26.45;;;4.03;;
9799;SDS011;4939;52.00085300;4.17406100;2023-04-01T01:52:36;26.73;;;4.65;;
9799;SDS011;4939;52.00085300;4.17406100;2023-04-01T01:55:02;25.40;;;4.05;;
9799;SDS011;4939;52.00085300;4.17406100;2023-04-01T01:57:33;27.75;;;4.93;;
9799;SDS011;4939;52.00085300;4.17406100;2023-04-01T02:00:08;12.02;;;2.63;;
9799;SDS011;4939;52.00085300;4.17406100;2023-04-01T02:02:45;14.05;;;2.50;;
9799;SDS011;4939;52.00085300;4.17406100;2023-04-01T02:05:17;14.75;;;2.50;;
9799;SDS011;4939;52.00085300;4.17406100;2023-04-01T02:08:04;13.27;;;2.55;;
9799;SDS011;4939;52.00085300;4.17406100;2023-04-01T02:10:35;11.88;;;2.13;;
9799;SDS011;4939;52.00085300;4.17406100;2023-04-01T02:13:07;11.35;;;2.15;;
9799;SDS011;4939;52.00085300;4.17406100;2023-04-01T02:15:41;10.57;;;1.92;;
9799;SDS011;4939;52.00085300;4.17406100;2023-04-01T02:18:11;9.43;;;1.73;;
9799;SDS011;4939;52.00085300;4.17406100;2023-04-01T02:20:38;13.68;;;2.47;;
9799;SDS011;4939;52.00085300;4.17406100;2023-04-01T02:23:05;14.45;;;2.05;;
9799;SDS011;4939;52.00085300;4.17406100;2023-04-01T02:25:33;12.95;;;3.13;;
9799;SDS011;4939;52.00085300;4.17406100;2023-04-01T02:28:01;16.42;;;3.17;;
9799;SDS011;4939;52.00085300;4.17406100;2023-04-01T02:30:29;28.45;;;3.95;;
9799;SDS011;4939;52.00085300;4.17406100;2023-04-01T02:32:58;33.38;;;5.60;;
9799;SDS011;4939;52.00085300;4.17406100;2023-04-01T02:35:24;41.65;;;4.80;;
9799;SDS011;4939;52.00085300;4.17406100;2023-04-01T02:37:50;39.17;;;5.00;;
9799;SDS011;4939;52.00085300;4.17406100;2023-04-01T02:40:18;60.92;;;6.63;;
9799;SDS011;4939;52.00085300;4.17406100;2023-04-01T02:42:45;34.38;;;5.78;;
9799;SDS011;4939;52.00085300;4.17406100;2023-04-01T02:45:12;47.22;;;6.55;;
9799;SDS011;4939;52.00085300;4.17406100;2023-04-01T02:47:38;52.42;;;6.28;;
9799;SDS011;4939;52.00085300;4.17406100;2023-04-01T02:50:04;51.10;;;8.10;;
9799;SDS011;4939;52.00085300;4.17406100;2023-04-01T02:52:31;69.30;;;8.48;;
9799;SDS011;4939;52.00085300;4.17406100;2023-04-01T02:54:57;65.63;;;7.88;;
9799;SDS011;4939;52.00085300;4.17406100;2023-04-01T02:57:23;71.40;;;7.45;;
9799;SDS011;4939;52.00085300;4.17406100;2023-04-01T02:59:49;71.68;;;8.98;;
9799;SDS011;4939;52.00085300;4.17406100;2023-04-01T03:02:15;63.70;;;7.75;;
9799;SDS011;4939;52.00085300;4.17406100;2023-04-01T03:04:41;64.15;;;7.53;;
9799;SDS011;4939;52.00085300;4.17406100;2023-04-01T03:07:07;50.03;;;6.82;;
9799;SDS011;4939;52.00085300;4.17406100;2023-04-01T03:09:34;62.95;;;7.78;;
9799;SDS011;4939;52.00085300;4.17406100;2023-04-01T03:12:01;66.68;;;9.18;;
9799;SDS011;4939;52.00085300;4.17406100;2023-04-01T03:14:27;54.30;;;7.78;;
9799;SDS011;4939;52.00085300;4.17406100;2023-04-01T03:16:52;81.70;;;8.75;;
9799;SDS011;4939;52.00085300;4.17406100;2023-04-01T03:19:18;66.50;;;9.02;;
9799;SDS011;4939;52.00085300;4.17406100;2023-04-01T03:21:44;47.38;;;7.00;;
9799;SDS011;4939;52.00085300;4.17406100;2023-04-01T03:24:09;66.13;;;7.93;;
9799;SDS011;4939;52.00085300;4.17406100;2023-04-01T03:26:35;73.10;;;8.15;;
9799;SDS011;4939;52.00085300;4.17406100;2023-04-01T03:29:01;84.93;;;10.60;;
9799;SDS011;4939;52.00085300;4.17406100;2023-04-01T03:31:26;92.88;;;12.65;;
9799;SDS011;4939;52.00085300;4.17406100;2023-04-01T03:33:52;81.80;;;11.38;;
9799;SDS011;4939;52.00085300;4.17406100;2023-04-01T03:36:18;66.97;;;9.07;;
9799;SDS011;4939;52.00085300;4.17406100;2023-04-01T03:38:44;57.47;;;8.52;;
9799;SDS011;4939;52.00085300;4.17406100;2023-04-01T03:41:13;60.90;;;8.88;;
9799;SDS011;4939;52.00085300;4.17406100;2023-04-01T03:43:40;60.22;;;9.15;;
9799;SDS011;4939;52.00085300;4.17406100;2023-04-01T03:46:06;59.88;;;9.23;;
9799;SDS011;4939;52.00085300;4.17406100;2023-04-01T03:48:31;61.97;;;9.48;;
9799;SDS011;4939;52.00085300;4.17406100;2023-04-01T03:50:57;63.38;;;9.70;;
9799;SDS011;4939;52.00085300;4.17406100;2023-04-01T03:53:23;51.33;;;7.82;;
9799;SDS011;4939;52.00085300;4.17406100;2023-04-01T03:55:48;45.17;;;7.72;;
9799;SDS011;4939;52.00085300;4.17406100;2023-04-01T03:58:16;45.67;;;8.57;;
9799;SDS011;4939;52.00085300;4.17406100;2023-04-01T04:00:42;39.05;;;7.03;;
9799;SDS011;4939;52.00085300;4.17406100;2023-04-01T04:03:07;34.95;;;6.43;;
9799;SDS011;4939;52.00085300;4.17406100;2023-04-01T04:05:33;28.55;;;6.25;;
9799;SDS011;4939;52.00085300;4.17406100;2023-04-01T04:07:58;40.28;;;7.28;;
9799;SDS011;4939;52.00085300;4.17406100;2023-04-01T04:10:24;30.05;;;5.95;;
9799;SDS011;4939;52.00085300;4.17406100;2023-04-01T04:12:50;46.35;;;7.32;;
9799;SDS011;4939;52.00085300;4.17406100;2023-04-01T04:15:17;32.80;;;6.97;;
9799;SDS011;4939;52.00085300;4.17406100;2023-04-01T04:17:46;40.03;;;6.90;;
9799;SDS011;4939;52.00085300;4.17406100;2023-04-01T04:20:12;46.40;;;7.43;;
9799;SDS011;4939;52.00085300;4.17406100;2023-04-01T04:22:37;39.20;;;7.15;;
9799;SDS011;4939;52.00085300;4.17406100;2023-04-01T04:25:03;48.15;;;7.65;;
9799;SDS011;4939;52.00085300;4.17406100;2023-04-01T04:27:29;48.80;;;7.75;;
9799;SDS011;4939;52.00085300;4.17406100;2023-04-01T04:29:55;48.95;;;7.40;;
9799;SDS011;4939;52.00085300;4.17406100;2023-04-01T04:32:21;48.92;;;7.18;;
9799;SDS011;4939;52.00085300;4.17406100;2023-04-01T04:34:46;44.65;;;6.57;;
9799;SDS011;4939;52.00085300;4.17406100;2023-04-01T04:37:12;51.20;;;7.82;;
9799;SDS011;4939;52.00085300;4.17406100;2023-04-01T04:39:37;35.42;;;6.88;;
9799;SDS011;4939;52.00085300;4.17406100;2023-04-01T04:42:03;45.15;;;7.32;;
9799;SDS011;4939;52.00085300;4.17406100;2023-04-01T04:44:30;41.60;;;6.70;;
9799;SDS011;4939;52.00085300;4.17406100;2023-04-01T04:46:55;41.70;;;6.32;;
9799;SDS011;4939;52.00085300;4.17406100;2023-04-01T04:49:21;43.22;;;5.55;;
9799;SDS011;4939;52.00085300;4.17406100;2023-04-01T04:51:46;31.23;;;5.80;;
9799;SDS011;4939;52.00085300;4.17406100;2023-04-01T04:54:13;31.08;;;5.78;;
9799;SDS011;4939;52.00085300;4.17406100;2023-04-01T04:56:38;41.50;;;6.75;;
9799;SDS011;4939;52.00085300;4.17406100;2023-04-01T04:59:04;41.05;;;7.80;;
9799;SDS011;4939;52.00085300;4.17406100;2023-04-01T05:01:30;40.80;;;7.20;;
9799;SDS011;4939;52.00085300;4.17406100;2023-04-01T05:03:56;31.00;;;7.13;;
9799;SDS011;4939;52.00085300;4.17406100;2023-04-01T05:06:21;37.55;;;6.85;;
9799;SDS011;4939;52.00085300;4.17406100;2023-04-01T05:08:47;23.90;;;6.13;;
9799;SDS011;4939;52.00085300;4.17406100;2023-04-01T05:11:14;30.55;;;7.20;;
9799;SDS011;4939;52.00085300;4.17406100;2023-04-01T05:13:41;28.65;;;7.00;;
9799;SDS011;4939;52.00085300;4.17406100;2023-04-01T05:16:08;26.98;;;6.75;;
9799;SDS011;4939;52.00085300;4.17406100;2023-04-01T05:18:34;18.23;;;5.50;;
9799;SDS011;4939;52.00085300;4.17406100;2023-04-01T05:21:00;23.85;;;6.20;;
9799;SDS011;4939;52.00085300;4.17406100;2023-04-01T05:23:26;29.02;;;6.68;;
9799;SDS011;4939;52.00085300;4.17406100;2023-04-01T05:25:51;36.58;;;7.63;;
9799;SDS011;4939;52.00085300;4.17406100;2023-04-01T05:28:18;32.10;;;8.23;;
9799;SDS011;4939;52.00085300;4.17406100;2023-04-01T05:30:44;25.15;;;6.63;;
9799;SDS011;4939;52.00085300;4.17406100;2023-04-01T05:33:11;31.40;;;7.53;;
9799;SDS011;4939;52.00085300;4.17406100;2023-04-01T05:35:37;39.60;;;7.88;;
9799;SDS011;4939;52.00085300;4.17406100;2023-04-01T05:38:04;39.75;;;8.63;;
9799;SDS011;4939;52.00085300;4.17406100;2023-04-01T05:40:30;36.30;;;7.45;;
9799;SDS011;4939;52.00085300;4.17406100;2023-04-01T05:42:56;24.25;;;6.53;;
9799;SDS011;4939;52.00085300;4.17406100;2023-04-01T05:45:23;30.13;;;7.63;;
9799;SDS011;4939;52.00085300;4.17406100;2023-04-01T05:47:48;27.42;;;6.20;;
9799;SDS011;4939;52.00085300;4.17406100;2023-04-01T05:50:14;37.33;;;8.38;;
9799;SDS011;4939;52.00085300;4.17406100;2023-04-01T05:52:40;31.10;;;6.70;;
9799;SDS011;4939;52.00085300;4.17406100;2023-04-01T05:55:06;34.67;;;6.68;;
9799;SDS011;4939;52.00085300;4.17406100;2023-04-01T05:57:32;47.33;;;8.68;;
9799;SDS011;4939;52.00085300;4.17406100;2023-04-01T05:59:58;45.60;;;7.93;;
9799;SDS011;4939;52.00085300;4.17406100;2023-04-01T06:02:26;66.72;;;9.13;;
9799;SDS011;4939;52.00085300;4.17406100;2023-04-01T06:05:03;50.42;;;8.95;;
9799;SDS011;4939;52.00085300;4.17406100;2023-04-01T06:07:48;61.88;;;8.23;;
9799;SDS011;4939;52.00085300;4.17406100;2023-04-01T06:10:21;50.60;;;8.75;;
9799;SDS011;4939;52.00085300;4.17406100;2023-04-01T06:15:18;33.78;;;7.40;;
9799;SDS011;4939;52.00085300;4.17406100;2023-04-01T06:20:40;42.45;;;8.73;;
9799;SDS011;4939;52.00085300;4.17406100;2023-04-01T06:26:30;47.75;;;8.75;;
9799;SDS011;4939;52.00085300;4.17406100;2023-04-01T06:29:08;39.70;;;7.18;;
9799;SDS011;4939;52.00085300;4.17406100;2023-04-01T06:37:03;35.88;;;7.72;;
9799;SDS011;4939;52.00085300;4.17406100;2023-04-01T06:45:28;35.92;;;7.07;;
9799;SDS011;4939;52.00085300;4.17406100;2023-04-01T06:54:17;32.92;;;7.50;;
9799;SDS011;4939;52.00085300;4.17406100;2023-04-01T06:59:17;28.33;;;6.95;;
9799;SDS011;4939;52.00085300;4.17406100;2023-04-01T07:04:39;19.40;;;6.23;;
9799;SDS011;4939;52.00085300;4.17406100;2023-04-01T07:07:17;17.92;;;4.95;;
9799;SDS011;4939;52.00085300;4.17406100;2023-04-01T07:10:19;23.58;;;5.97;;
9799;SDS011;4939;52.00085300;4.17406100;2023-04-01T07:12:54;13.95;;;4.47;;
9799;SDS011;4939;52.00085300;4.17406100;2023-04-01T07:15:40;25.15;;;5.60;;
9799;SDS011;4939;52.00085300;4.17406100;2023-04-01T07:18:13;27.20;;;6.38;;
9799;SDS011;4939;52.00085300;4.17406100;2023-04-01T07:20:43;30.42;;;6.60;;
9799;SDS011;4939;52.00085300;4.17406100;2023-04-01T07:23:22;37.83;;;7.55;;
9799;SDS011;4939;52.00085300;4.17406100;2023-04-01T07:26:00;24.27;;;6.35;;
9799;SDS011;4939;52.00085300;4.17406100;2023-04-01T07:28:48;27.95;;;7.32;;
9799;SDS011;4939;52.00085300;4.17406100;2023-04-01T07:34:08;13.00;;;4.57;;
9799;SDS011;4939;52.00085300;4.17406100;2023-04-01T07:36:39;11.20;;;3.58;;
9799;SDS011;4939;52.00085300;4.17406100;2023-04-01T07:39:24;15.40;;;4.25;;
9799;SDS011;4939;52.00085300;4.17406100;2023-04-01T07:44:39;16.92;;;5.22;;
9799;SDS011;4939;52.00085300;4.17406100;2023-04-01T07:47:32;17.48;;;5.53;;
9799;SDS011;4939;52.00085300;4.17406100;2023-04-01T07:52:46;20.10;;;6.13;;
9799;SDS011;4939;52.00085300;4.17406100;2023-04-01T07:55:33;39.92;;;6.85;;
9799;SDS011;4939;52.00085300;4.17406100;2023-04-01T07:58:14;27.10;;;6.50;;
9799;SDS011;4939;52.00085300;4.17406100;2023-04-01T08:09:10;25.73;;;6.68;;
9799;SDS011;4939;52.00085300;4.17406100;2023-04-01T08:12:08;31.20;;;7.10;;
9799;SDS011;4939;52.00085300;4.17406100;2023-04-01T08:25:35;32.00;;;6.70;;
9799;SDS011;4939;52.00085300;4.17406100;2023-04-01T08:30:41;35.28;;;7.40;;
9799;SDS011;4939;52.00085300;4.17406100;2023-04-01T08:33:11;34.25;;;7.28;;
9799;SDS011;4939;52.00085300;4.17406100;2023-04-01T08:35:39;36.20;;;6.97;;
9799;SDS011;4939;52.00085300;4.17406100;2023-04-01T08:38:17;35.90;;;7.70;;
9799;SDS011;4939;52.00085300;4.17406100;2023-04-01T08:41:01;34.17;;;7.68;;
9799;SDS011;4939;52.00085300;4.17406100;2023-04-01T08:46:56;41.63;;;7.85;;
9799;SDS011;4939;52.00085300;4.17406100;2023-04-01T08:49:52;34.35;;;7.28;;
9799;SDS011;4939;52.00085300;4.17406100;2023-04-01T08:56:03;35.33;;;7.22;;
9799;SDS011;4939;52.00085300;4.17406100;2023-04-01T08:58:44;24.50;;;6.28;;
9799;SDS011;4939;52.00085300;4.17406100;2023-04-01T09:01:42;24.17;;;5.85;;
9799;SDS011;4939;52.00085300;4.17406100;2023-04-01T09:07:14;26.42;;;5.93;;
9799;SDS011;4939;52.00085300;4.17406100;2023-04-01T09:10:18;30.05;;;6.75;;
9799;SDS011;4939;52.00085300;4.17406100;2023-04-01T09:21:24;25.10;;;6.85;;
9799;SDS011;4939;52.00085300;4.17406100;2023-04-01T09:24:15;23.58;;;6.45;;
9799;SDS011;4939;52.00085300;4.17406100;2023-04-01T09:27:54;19.27;;;6.53;;
9799;SDS011;4939;52.00085300;4.17406100;2023-04-01T09:30:17;29.25;;;6.60;;
9799;SDS011;4939;52.00085300;4.17406100;2023-04-01T09:33:36;21.45;;;6.00;;
9799;SDS011;4939;52.00085300;4.17406100;2023-04-01T09:38:49;15.10;;;4.72;;
9799;SDS011;4939;52.00085300;4.17406100;2023-04-01T09:44:02;23.67;;;5.97;;
9799;SDS011;4939;52.00085300;4.17406100;2023-04-01T09:49:22;18.00;;;5.50;;
9799;SDS011;4939;52.00085300;4.17406100;2023-04-01T10:01:13;14.68;;;4.22;;
9799;SDS011;4939;52.00085300;4.17406100;2023-04-01T10:21:36;11.40;;;4.03;;
9799;SDS011;4939;52.00085300;4.17406100;2023-04-01T10:28:04;16.33;;;4.70;;
9799;SDS011;4939;52.00085300;4.17406100;2023-04-01T10:33:49;17.50;;;4.85;;
9799;SDS011;4939;52.00085300;4.17406100;2023-04-01T10:41:36;13.02;;;4.53;;
9799;SDS011;4939;52.00085300;4.17406100;2023-04-01T10:44:35;22.55;;;5.32;;
9799;SDS011;4939;52.00085300;4.17406100;2023-04-01T10:58:46;19.40;;;5.35;;
9799;SDS011;4939;52.00085300;4.17406100;2023-04-01T11:13:12;25.58;;;6.40;;
9799;SDS011;4939;52.00085300;4.17406100;2023-04-01T11:49:46;49.92;;;9.70;;
9799;SDS011;4939;52.00085300;4.17406100;2023-04-01T11:57:53;48.35;;;8.60;;
9799;SDS011;4939;52.00085300;4.17406100;2023-04-01T12:00:46;36.05;;;7.55;;
9799;SDS011;4939;52.00085300;4.17406100;2023-04-01T12:03:29;44.33;;;9.13;;
9799;SDS011;4939;52.00085300;4.17406100;2023-04-01T12:08:52;44.40;;;10.50;;
9799;SDS011;4939;52.00085300;4.17406100;2023-04-01T12:11:29;32.20;;;8.70;;
9799;SDS011;4939;52.00085300;4.17406100;2023-04-01T12:16:43;41.35;;;8.25;;
9799;SDS011;4939;52.00085300;4.17406100;2023-04-01T12:19:35;42.40;;;8.60;;
9799;SDS011;4939;52.00085300;4.17406100;2023-04-01T12:37:02;33.22;;;7.57;;
9799;SDS011;4939;52.00085300;4.17406100;2023-04-01T12:59:27;32.03;;;8.20;;
9799;SDS011;4939;52.00085300;4.17406100;2023-04-01T13:02:20;36.47;;;8.93;;
9799;SDS011;4939;52.00085300;4.17406100;2023-04-01T13:05:15;34.97;;;8.07;;
9799;SDS011;4939;52.00085300;4.17406100;2023-04-01T13:08:07;32.97;;;8.13;;
9799;SDS011;4939;52.00085300;4.17406100;2023-04-01T13:11:32;18.77;;;6.07;;
9799;SDS011;4939;52.00085300;4.17406100;2023-04-01T13:27:10;28.90;;;6.38;;
9799;SDS011;4939;52.00085300;4.17406100;2023-04-01T13:35:48;27.80;;;5.60;;
9799;SDS011;4939;52.00085300;4.17406100;2023-04-01T13:38:37;16.63;;;4.00;;
9799;SDS011;4939;52.00085300;4.17406100;2023-04-01T13:41:25;15.15;;;3.40;;
9799;SDS011;4939;52.00085300;4.17406100;2023-04-01T13:44:28;12.38;;;4.20;;
9799;SDS011;4939;52.00085300;4.17406100;2023-04-01T13:58:04;20.75;;;5.07;;
9799;SDS011;4939;52.00085300;4.17406100;2023-04-01T14:01:06;17.73;;;4.63;;
9799;SDS011;4939;52.00085300;4.17406100;2023-04-01T14:06:54;21.27;;;5.20;;
9799;SDS011;4939;52.00085300;4.17406100;2023-04-01T14:23:42;25.90;;;4.50;;
9799;SDS011;4939;52.00085300;4.17406100;2023-04-01T14:39:04;19.35;;;3.85;;
9799;SDS011;4939;52.00085300;4.17406100;2023-04-01T14:43:54;11.43;;;3.42;;
9799;SDS011;4939;52.00085300;4.17406100;2023-04-01T14:50:02;11.40;;;3.13;;
9799;SDS011;4939;52.00085300;4.17406100;2023-04-01T14:52:42;16.98;;;3.88;;
9799;SDS011;4939;52.00085300;4.17406100;2023-04-01T14:55:27;15.38;;;4.22;;
9799;SDS011;4939;52.00085300;4.17406100;2023-04-01T14:57:58;13.32;;;2.83;;
9799;SDS011;4939;52.00085300;4.17406100;2023-04-01T15:00:48;12.75;;;3.28;;
9799;SDS011;4939;52.00085300;4.17406100;2023-04-01T15:09:24;18.52;;;3.65;;
9799;SDS011;4939;52.00085300;4.17406100;2023-04-01T15:12:11;11.77;;;3.10;;
9799;SDS011;4939;52.00085300;4.17406100;2023-04-01T15:25:39;15.45;;;3.30;;
9799;SDS011;4939;52.00085300;4.17406100;2023-04-01T15:28:46;20.35;;;3.38;;
9799;SDS011;4939;52.00085300;4.17406100;2023-04-01T15:31:25;27.90;;;3.97;;
9799;SDS011;4939;52.00085300;4.17406100;2023-04-01T15:36:57;17.67;;;3.20;;
9799;SDS011;4939;52.00085300;4.17406100;2023-04-01T15:42:51;13.65;;;3.28;;
9799;SDS011;4939;52.00085300;4.17406100;2023-04-01T15:50:55;19.73;;;3.28;;
9799;SDS011;4939;52.00085300;4.17406100;2023-04-01T15:53:54;12.13;;;3.00;;
9799;SDS011;4939;52.00085300;4.17406100;2023-04-01T16:02:31;17.75;;;3.25;;
9799;SDS011;4939;52.00085300;4.17406100;2023-04-01T16:13:53;17.52;;;3.47;;
9799;SDS011;4939;52.00085300;4.17406100;2023-04-01T16:16:47;17.25;;;2.90;;
9799;SDS011;4939;52.00085300;4.17406100;2023-04-01T16:19:21;21.00;;;3.25;;
9799;SDS011;4939;52.00085300;4.17406100;2023-04-01T16:24:51;10.18;;;3.00;;
9799;SDS011;4939;52.00085300;4.17406100;2023-04-01T16:32:57;16.48;;;2.97;;
9799;SDS011;4939;52.00085300;4.17406100;2023-04-01T16:38:05;18.40;;;4.03;;
9799;SDS011;4939;52.00085300;4.17406100;2023-04-01T16:49:02;21.15;;;3.35;;
9799;SDS011;4939;52.00085300;4.17406100;2023-04-01T16:54:28;11.63;;;3.85;;
9799;SDS011;4939;52.00085300;4.17406100;2023-04-01T16:57:21;18.75;;;4.05;;
9799;SDS011;4939;52.00085300;4.17406100;2023-04-01T16:59:58;14.18;;;3.03;;
9799;SDS011;4939;52.00085300;4.17406100;2023-04-01T17:02:49;14.18;;;3.58;;
9799;SDS011;4939;52.00085300;4.17406100;2023-04-01T17:05:22;20.83;;;6.32;;
9799;SDS011;4939;52.00085300;4.17406100;2023-04-01T17:11:21;9.38;;;2.33;;
9799;SDS011;4939;52.00085300;4.17406100;2023-04-01T17:22:11;9.70;;;2.70;;
9799;SDS011;4939;52.00085300;4.17406100;2023-04-01T17:25:30;11.68;;;3.08;;
9799;SDS011;4939;52.00085300;4.17406100;2023-04-01T17:27:44;12.95;;;2.53;;
9799;SDS011;4939;52.00085300;4.17406100;2023-04-01T17:30:23;12.65;;;3.00;;
9799;SDS011;4939;52.00085300;4.17406100;2023-04-01T17:35:34;14.38;;;5.55;;
9799;SDS011;4939;52.00085300;4.17406100;2023-04-01T17:38:18;14.80;;;4.07;;
9799;SDS011;4939;52.00085300;4.17406100;2023-04-01T17:44:14;19.98;;;5.60;;
9799;SDS011;4939;52.00085300;4.17406100;2023-04-01T17:49:33;14.80;;;5.10;;
9799;SDS011;4939;52.00085300;4.17406100;2023-04-01T17:52:11;15.60;;;6.73;;
9799;SDS011;4939;52.00085300;4.17406100;2023-04-01T17:57:30;12.70;;;5.05;;
9799;SDS011;4939;52.00085300;4.17406100;2023-04-01T18:00:01;13.55;;;3.72;;
9799;SDS011;4939;52.00085300;4.17406100;2023-04-01T18:02:54;11.25;;;4.20;;
9799;SDS011;4939;52.00085300;4.17406100;2023-04-01T18:05:33;11.35;;;4.60;;
9799;SDS011;4939;52.00085300;4.17406100;2023-04-01T18:11:00;11.93;;;4.35;;
9799;SDS011;4939;52.00085300;4.17406100;2023-04-01T18:13:39;11.65;;;3.95;;
9799;SDS011;4939;52.00085300;4.17406100;2023-04-01T18:22:28;14.43;;;5.43;;
9799;SDS011;4939;52.00085300;4.17406100;2023-04-01T18:25:14;13.70;;;4.10;;
9799;SDS011;4939;52.00085300;4.17406100;2023-04-01T18:30:36;12.18;;;3.90;;
9799;SDS011;4939;52.00085300;4.17406100;2023-04-01T18:33:20;14.45;;;4.25;;
9799;SDS011;4939;52.00085300;4.17406100;2023-04-01T18:39:02;16.27;;;4.50;;
9799;SDS011;4939;52.00085300;4.17406100;2023-04-01T18:47:11;12.02;;;5.88;;
9799;SDS011;4939;52.00085300;4.17406100;2023-04-01T18:52:28;12.18;;;3.55;;
9799;SDS011;4939;52.00085300;4.17406100;2023-04-01T18:55:29;13.63;;;4.50;;
9799;SDS011;4939;52.00085300;4.17406100;2023-04-01T18:58:19;14.35;;;4.90;;
9799;SDS011;4939;52.00085300;4.17406100;2023-04-01T19:00:52;15.65;;;4.88;;
9799;SDS011;4939;52.00085300;4.17406100;2023-04-01T19:03:48;14.88;;;4.00;;
9799;SDS011;4939;52.00085300;4.17406100;2023-04-01T19:06:43;8.57;;;3.28;;
9799;SDS011;4939;52.00085300;4.17406100;2023-04-01T19:09:18;18.30;;;4.07;;
9799;SDS011;4939;52.00085300;4.17406100;2023-04-01T19:17:16;13.68;;;5.60;;
9799;SDS011;4939;52.00085300;4.17406100;2023-04-01T19:20:16;13.50;;;5.07;;
9799;SDS011;4939;52.00085300;4.17406100;2023-04-01T19:25:57;9.43;;;4.75;;
9799;SDS011;4939;52.00085300;4.17406100;2023-04-01T19:28:30;11.40;;;5.45;;
9799;SDS011;4939;52.00085300;4.17406100;2023-04-01T19:39:28;11.32;;;6.10;;
9799;SDS011;4939;52.00085300;4.17406100;2023-04-01T19:47:24;18.98;;;7.90;;
9799;SDS011;4939;52.00085300;4.17406100;2023-04-01T19:53:20;14.73;;;7.80;;
9799;SDS011;4939;52.00085300;4.17406100;2023-04-01T19:56:14;11.95;;;5.78;;
9799;SDS011;4939;52.00085300;4.17406100;2023-04-01T19:58:57;11.82;;;5.97;;
9799;SDS011;4939;52.00085300;4.17406100;2023-04-01T20:01:45;11.02;;;6.13;;
9799;SDS011;4939;52.00085300;4.17406100;2023-04-01T20:04:21;12.13;;;5.45;;
9799;SDS011;4939;52.00085300;4.17406100;2023-04-01T20:07:37;9.00;;;5.35;;
9799;SDS011;4939;52.00085300;4.17406100;2023-04-01T20:12:42;15.98;;;7.30;;
9799;SDS011;4939;52.00085300;4.17406100;2023-04-01T20:15:27;18.92;;;8.25;;
9799;SDS011;4939;52.00085300;4.17406100;2023-04-01T20:18:02;16.52;;;7.20;;
9799;SDS011;4939;52.00085300;4.17406100;2023-04-01T20:20:37;16.17;;;7.90;;
9799;SDS011;4939;52.00085300;4.17406100;2023-04-01T20:25:40;12.88;;;6.20;;
9799;SDS011;4939;52.00085300;4.17406100;2023-04-01T20:33:51;12.55;;;5.88;;
9799;SDS011;4939;52.00085300;4.17406100;2023-04-01T20:36:34;15.13;;;7.05;;
9799;SDS011;4939;52.00085300;4.17406100;2023-04-01T20:50:22;15.07;;;6.53;;
9799;SDS011;4939;52.00085300;4.17406100;2023-04-01T20:53:12;19.77;;;7.25;;
9799;SDS011;4939;52.00085300;4.17406100;2023-04-01T20:58:46;15.68;;;7.85;;
9799;SDS011;4939;52.00085300;4.17406100;2023-04-01T21:04:06;16.88;;;6.93;;
9799;SDS011;4939;52.00085300;4.17406100;2023-04-01T21:16:04;18.30;;;6.30;;
9799;SDS011;4939;52.00085300;4.17406100;2023-04-01T21:36:15;20.73;;;6.97;;
9799;SDS011;4939;52.00085300;4.17406100;2023-04-01T22:06:30;15.48;;;7.45;;
9799;SDS011;4939;52.00085300;4.17406100;2023-04-01T22:09:25;18.85;;;7.38;;
9799;SDS011;4939;52.00085300;4.17406100;2023-04-01T22:12:02;15.85;;;7.15;;
9799;SDS011;4939;52.00085300;4.17406100;2023-04-01T22:14:46;15.05;;;6.88;;
9799;SDS011;4939;52.00085300;4.17406100;2023-04-01T22:20:06;19.17;;;7.53;;
9799;SDS011;4939;52.00085300;4.17406100;2023-04-01T22:22:49;16.45;;;7.20;;
9799;SDS011;4939;52.00085300;4.17406100;2023-04-01T22:28:00;18.45;;;7.47;;
9799;SDS011;4939;52.00085300;4.17406100;2023-04-01T22:30:33;13.85;;;6.70;;
9799;SDS011;4939;52.00085300;4.17406100;2023-04-01T22:41:32;17.63;;;6.70;;
9799;SDS011;4939;52.00085300;4.17406100;2023-04-01T22:44:16;19.10;;;7.90;;
9799;SDS011;4939;52.00085300;4.17406100;2023-04-01T22:47:11;19.55;;;7.43;;
9799;SDS011;4939;52.00085300;4.17406100;2023-04-01T22:50:09;14.32;;;6.65;;